Portknockie, United Kingdom
Current Conditions -  °F | °C
As of 3:50 PM on Thursday 18 Dec 2014 (Local Time) from EGQS Reporting Station
Few Clouds Few Clouds  
Wind Chill: 35°   Ceiling: Unl
Heat Index: 43°   Visibility: 6mi
Dew Point: 37°   Wind: 16mph
Humidity: 81%   Direction: 260°W
Pressure: 29.23"   Gusts: NA
Location:  57.7°N, 2.86°W
Report Text: EGQS 181550Z 26014KT 9999 FEW030 06/03 Q0990 BLU
Loading
Personal Weather Stations






























Interactive Weather Map New forecast layout! Learn more

10-Day Weather Forecast

Advertisements
Track Severe Weather on mobile